Flag for France

Past Weather in 47°10'06.2"N, 6°50'21.5"E, France — Yesterday and Last 2 Weeks

Currently: 81 °F. Passing clouds. (Weather station: Luxeuil, France). See more current weather

Past Weather in 47°10'06.2"N, 6°50'21.5"E — Graph

°F

47°10'06.2"N, 6°50'21.5"E Temperature Yesterday

Maximum temperature yesterday: 70 °F (at 6:30 pm)
Minimum temperature yesterday: 59 °F (at 12:00 am)
Average temperature yesterday: 63 °F

High & Low Weather Summary for the Past Weeks

 TemperatureHumidityPressure
High79 °F (Jun 6, 4:00 pm)100% (Jun 3, 11:30 pm)30.12 "Hg (Jun 3, 11:30 pm)
Low41 °F (Jun 12, 5:00 am)30% (Jun 13, 1:00 pm)29.74 "Hg (Jun 9, 5:30 pm)
Average61 °F75%29.96 "Hg
* Reported Jun 3 1:00 pm — Jun 18 1:00 pm, 47°10'06.2"N, 6°50'21.5"E. Weather by CustomWeather, © 2024

Note: Actual official high and low records may vary slightly from our data, if they occured in-between our weather recording intervals... More about our weather records

47°10'06.2"N, 6°50'21.5"E Weather History for the Previous 24 Hours

Scroll right to see more
 ConditionsComfort  
Time TempWeatherWind HumidityBarometerVisibility
1:00 pm
Tue, Jun 18
79 °FPassing clouds.9 mph51%29.95 "HgN/A
11:30 am77 °FPassing clouds.7 mph61%29.95 "HgN/A
10:30 am75 °FPassing clouds.5 mph65%29.92 "HgN/A
9:30 am72 °FPassing clouds.8 mph69%29.92 "HgN/A
8:30 am68 °FSunny.7 mph73%29.92 "Hg10 mi
7:30 am63 °FSunny.6 mph83%29.95 "Hg10 mi
7:00 am59 °FSunny.5 mph88%29.95 "Hg10 mi
6:30 am57 °FSunny.6 mph94%29.95 "Hg10 mi
6:00 am55 °FSunny.6 mph100%29.95 "Hg10 mi
5:30 am57 °FClear.8 mph94%29.95 "Hg10 mi
5:00 am57 °FClear.7 mph94%29.95 "Hg10 mi
4:30 am57 °FClear.5 mph94%29.95 "Hg10 mi
4:00 am57 °FClear.6 mph94%29.95 "Hg10 mi
3:30 am59 °FClear.8 mph88%29.95 "Hg10 mi
3:00 am59 °FClear.7 mph88%29.95 "Hg10 mi
2:00 am59 °FClear.7 mph94%29.98 "Hg10 mi
1:30 am59 °FClear.6 mph94%29.98 "Hg10 mi
1:00 am59 °FClear.6 mph94%29.98 "Hg10 mi
12:30 am61 °FPassing clouds.5 mph88%29.98 "HgN/A
12:00 am59 °FClear.5 mph94%29.98 "Hg10 mi
11:30 pm
Mon, Jun 17
61 °FClear.2 mph94%29.98 "Hg10 mi
11:00 pm63 °FClear.3 mph88%29.98 "Hg10 mi
10:30 pm63 °FClear.5 mph88%29.98 "Hg10 mi
10:00 pm64 °FClear.2 mph83%29.98 "Hg10 mi
9:30 pm64 °FSunny.6 mph83%29.98 "Hg10 mi
9:00 pm66 °FSunny.7 mph78%29.95 "Hg10 mi
8:30 pm68 °FSunny.8 mph73%29.98 "Hg10 mi
8:00 pm68 °FSunny.9 mph73%29.98 "Hg10 mi
7:30 pm70 °FSunny.8 mph73%29.98 "Hg10 mi
7:00 pm68 °FPartly sunny.8 mph73%29.98 "HgN/A
6:30 pm70 °FPartly sunny.9 mph73%29.98 "HgN/A
6:00 pm68 °FOvercast.7 mph78%29.98 "HgN/A
5:30 pm68 °FMore clouds than sun.7 mph78%29.98 "HgN/A
4:00 pm68 °FMore clouds than sun.3 mph73%29.98 "HgN/A
3:00 pm66 °FMostly cloudy.8 mph83%29.98 "HgN/A
Weather by CustomWeather, © 2024

See weather overview